createdAt,value
2019-04-25T00:00:02.009Z,101449.68
2019-04-25T00:02:38.223Z,101448.82
2019-04-25T00:05:12.209Z,101448.45
2019-04-25T00:07:43.819Z,101442.78
2019-04-25T00:10:15.221Z,101445.39
2019-04-25T00:12:46.332Z,101457.21
2019-04-25T00:15:16.956Z,101448.02
2019-04-25T00:17:48.263Z,101447.14
2019-04-25T00:20:21.372Z,101437.95
2019-04-25T00:23:03.146Z,101441.48
2019-04-25T00:25:59.259Z,101445.89
2019-04-25T00:28:31.493Z,101443.51
2019-04-25T00:31:02.645Z,101448.34
2019-04-25T00:33:33.302Z,101450.14
2019-04-25T00:36:03.984Z,101440.16
2019-04-25T00:38:34.461Z,101441.65
2019-04-25T00:41:05.261Z,101446.45
2019-04-25T00:43:35.911Z,101443.44
2019-04-25T00:46:06.706Z,101439.86
2019-04-25T00:48:37.461Z,101443.25
2019-04-25T00:51:08.094Z,101432.13
2019-04-25T00:53:39.028Z,101436.42
2019-04-25T00:56:11.207Z,101427.97
2019-04-25T00:59:01.941Z,101423.67
2019-04-25T01:01:52.960Z,101418.98
2019-04-25T01:04:26.132Z,101417.08
2019-04-25T01:06:57.963Z,101419.16
2019-04-25T01:15:51.087Z,101417.00
2019-04-25T01:18:23.136Z,101412.98
2019-04-25T01:21:10.377Z,101413.39
2019-04-25T01:23:40.870Z,101419.13
2019-04-25T01:26:13.173Z,101423.52
2019-04-25T01:28:44.160Z,101423.93
2019-04-25T01:31:16.885Z,101420.39
2019-04-25T01:33:48.291Z,101420.77
2019-04-25T01:36:27.022Z,101427.06
2019-04-25T01:39:04.308Z,101427.52
2019-04-25T01:41:45.625Z,101428.11
2019-04-25T01:44:38.482Z,101424.45
2019-04-25T01:47:09.511Z,101424.20
2019-04-25T01:49:40.180Z,101432.66
2019-04-25T01:52:11.084Z,101436.42
2019-04-25T01:54:43.740Z,101436.34
2019-04-25T01:57:14.985Z,101436.83
2019-04-25T01:59:45.687Z,101434.38
2019-04-25T02:02:20.607Z,101436.42
2019-04-25T02:04:51.467Z,101437.61
2019-04-25T02:07:23.385Z,101438.20
2019-04-25T02:09:55.180Z,101437.30
2019-04-25T02:12:34.590Z,101440.46
2019-04-25T02:15:06.171Z,101442.06
2019-04-25T02:17:36.896Z,101439.91
2019-04-25T02:20:07.942Z,101431.78
2019-04-25T02:22:38.767Z,101427.59
2019-04-25T02:25:09.458Z,101430.47
2019-04-25T02:27:40.331Z,101428.80
2019-04-25T02:30:12.371Z,101430.63
2019-04-25T02:32:44.233Z,101433.94
2019-04-25T02:35:15.460Z,101434.64
2019-04-25T02:37:46.002Z,101431.70
2019-04-25T02:40:19.874Z,101429.94
2019-04-25T02:42:50.643Z,101430.80
2019-04-25T02:45:39.651Z,101429.57
2019-04-25T02:48:34.329Z,101429.31
2019-04-25T02:51:14.654Z,101432.45
2019-04-25T02:53:47.601Z,101435.24
2019-04-25T02:56:29.872Z,101440.44
2019-04-25T02:58:51.104Z,101441.74
2019-04-25T03:01:25.684Z,101445.98
2019-04-25T03:03:57.411Z,101444.13
2019-04-25T03:06:28.078Z,101446.81
2019-04-25T03:09:00.258Z,101453.44
2019-04-25T03:11:32.206Z,101448.12
2019-04-25T03:14:06.604Z,101445.06
2019-04-25T03:16:35.460Z,101448.22
2019-04-25T03:19:27.094Z,101450.37
2019-04-25T03:22:00.080Z,101457.15
2019-04-25T03:24:31.015Z,101453.16
2019-04-25T03:27:03.407Z,101454.55
2019-04-25T03:29:34.653Z,101451.70
2019-04-25T03:32:11.383Z,101448.88
2019-04-25T03:34:38.667Z,101450.11
2019-04-25T03:37:09.469Z,101449.94
2019-04-25T03:39:40.411Z,101453.70
2019-04-25T03:42:12.019Z,101448.26
2019-04-25T03:44:43.802Z,101451.16
2019-04-25T03:47:14.673Z,101444.03
2019-04-25T03:49:45.242Z,101447.79
2019-04-25T03:52:16.027Z,101448.94
2019-04-25T03:54:46.839Z,101449.19
2019-04-25T03:57:17.616Z,101450.95
2019-04-25T03:59:48.245Z,101452.62
2019-04-25T04:02:18.846Z,101460.01
2019-04-25T04:04:49.571Z,101458.55
2019-04-25T04:07:21.236Z,101463.17
2019-04-25T04:09:53.216Z,101458.31
2019-04-25T04:12:24.398Z,101475.92
2019-04-25T04:14:55.120Z,101476.08
2019-04-25T04:17:35.321Z,101481.02
2019-04-25T04:20:27.675Z,101482.45
2019-04-25T04:23:05.667Z,101480.17
2019-04-25T04:25:37.978Z,101470.86
2019-04-25T04:28:09.716Z,101476.70
2019-04-25T04:30:40.563Z,101470.73
2019-04-25T04:33:25.710Z,101476.33
2019-04-25T04:35:47.689Z,101475.80
2019-04-25T04:38:18.363Z,101470.48
2019-04-25T04:40:49.042Z,101476.31
2019-04-25T04:43:19.797Z,101480.59
2019-04-25T04:45:50.779Z,101478.00
2019-04-25T04:48:23.159Z,101484.09
2019-04-25T04:50:54.171Z,101480.23
2019-04-25T04:53:25.116Z,101486.66
2019-04-25T04:55:57.231Z,101492.35
2019-04-25T04:58:27.940Z,101492.95
2019-04-25T05:00:58.768Z,101493.51
2019-04-25T05:03:44.682Z,101493.66
2019-04-25T05:06:24.010Z,101491.81
2019-04-25T05:08:59.428Z,101490.50
2019-04-25T05:11:30.535Z,101489.67
2019-04-25T05:14:01.314Z,101489.19
2019-04-25T05:16:33.185Z,101494.41
2019-04-25T05:19:04.406Z,101498.37
2019-04-25T05:21:35.181Z,101501.48
2019-04-25T05:24:06.067Z,101503.58
2019-04-25T05:26:36.733Z,101495.38
2019-04-25T05:29:07.365Z,101502.48
2019-04-25T05:31:56.919Z,101503.00
2019-04-25T05:34:28.846Z,101504.69
2019-04-25T05:36:59.350Z,101507.31
2019-04-25T05:39:29.950Z,101509.33
2019-04-25T05:42:25.705Z,101508.61
2019-04-25T05:44:59.563Z,101504.91
2019-04-25T05:47:30.286Z,101502.42
2019-04-25T05:50:00.993Z,101509.50
2019-04-25T05:52:31.603Z,101500.65
2019-04-25T05:55:03.962Z,101497.85
2019-04-25T05:57:45.562Z,101491.44
2019-04-25T06:00:08.344Z,101499.80
2019-04-25T06:02:40.036Z,101507.07
2019-04-25T06:05:10.860Z,101503.28
2019-04-25T06:07:43.214Z,101510.33
2019-04-25T06:10:45.009Z,101506.50
2019-04-25T06:13:39.480Z,101508.04
2019-04-25T06:16:20.158Z,101508.14
2019-04-25T06:19:20.800Z,101505.34
2019-04-25T06:21:53.441Z,101502.48
2019-04-25T06:24:39.319Z,101502.34
2019-04-25T06:27:28.843Z,101504.10
2019-04-25T06:30:15.784Z,101506.22
2019-04-25T06:32:46.827Z,101505.02
2019-04-25T06:35:17.540Z,101512.25
2019-04-25T06:37:48.091Z,101506.62
2019-04-25T06:40:19.675Z,101501.94
2019-04-25T06:42:50.991Z,101516.18
2019-04-25T06:45:51.840Z,101511.41
2019-04-25T06:48:28.907Z,101511.72
2019-04-25T06:50:59.517Z,101499.63
2019-04-25T06:53:30.557Z,101501.03
2019-04-25T06:56:01.458Z,101509.32
2019-04-25T06:58:34.225Z,101509.30
2019-04-25T07:01:05.091Z,101515.28
2019-04-25T07:03:35.828Z,101508.95
2019-04-25T07:06:06.797Z,101508.61
2019-04-25T07:08:37.220Z,101510.52
2019-04-25T07:11:07.819Z,101510.31
2019-04-25T07:13:43.871Z,101514.43
2019-04-25T07:19:17.633Z,101512.62
2019-04-25T07:21:48.566Z,101514.11
2019-04-25T07:24:19.374Z,101505.66
2019-04-25T07:27:26.654Z,101519.23
2019-04-25T07:30:27.370Z,101517.57
2019-04-25T07:33:03.759Z,101520.55
2019-04-25T07:35:34.997Z,101521.75
2019-04-25T07:38:06.693Z,101525.61
2019-04-25T07:40:37.507Z,101520.73
2019-04-25T07:43:08.228Z,101529.77
2019-04-25T07:45:39.314Z,101533.38
2019-04-25T07:48:10.048Z,101536.39
2019-04-25T07:50:40.658Z,101529.36
2019-04-25T07:53:11.879Z,101530.95
2019-04-25T07:55:48.487Z,101538.33
2019-04-25T07:58:20.163Z,101532.88
2019-04-25T08:00:50.819Z,101534.81
2019-04-25T08:03:21.827Z,101529.09
2019-04-25T08:05:53.398Z,101540.52
2019-04-25T08:08:25.187Z,101533.72
2019-04-25T08:11:04.035Z,101540.66
2019-04-25T08:13:47.188Z,101539.67
2019-04-25T08:16:19.394Z,101539.75
2019-04-25T09:40:20.710Z,101513.73
2019-04-25T09:42:53.664Z,101513.16
2019-04-25T09:45:53.268Z,101510.80
2019-04-25T09:48:51.769Z,101508.58
2019-04-25T09:51:33.470Z,101508.80
2019-04-25T09:54:21.417Z,101513.84
2019-04-25T09:56:55.305Z,101510.34
2019-04-25T09:59:29.636Z,101512.94
2019-04-25T10:01:59.042Z,101509.51
2019-04-25T10:04:30.042Z,101512.89
2019-04-25T10:07:00.638Z,101520.78
2019-04-25T10:09:31.434Z,101513.17
2019-04-25T10:12:03.090Z,101515.03
2019-04-25T10:15:04.535Z,101510.26
2019-04-25T10:17:37.572Z,101510.83
2019-04-25T10:20:09.881Z,101507.14
2019-04-25T10:22:40.362Z,101502.69
2019-04-25T10:25:11.331Z,101503.12
2019-04-25T10:27:44.600Z,101501.37
2019-04-25T10:30:19.153Z,101506.63
2019-04-25T10:32:48.064Z,101509.28
2019-04-25T10:35:18.703Z,101508.59
2019-04-25T10:45:47.300Z,101486.00
2019-04-25T10:48:17.999Z,101487.73
2019-04-25T10:50:48.940Z,101491.98
2019-04-25T10:53:21.077Z,101486.15
2019-04-25T10:55:51.961Z,101480.33
2019-04-25T10:58:22.735Z,101479.70
2019-04-25T11:00:54.445Z,101483.78
2019-04-25T11:03:36.948Z,101484.22
2019-04-25T11:06:08.009Z,101479.20
2019-04-25T11:08:39.504Z,101471.49
2019-04-25T11:11:13.767Z,101470.66
2019-04-25T11:13:45.274Z,101466.47
2019-04-25T11:16:17.061Z,101477.71
2019-04-25T11:18:47.779Z,101474.45
2019-04-25T11:21:18.307Z,101479.11
2019-04-25T11:23:50.033Z,101475.90
2019-04-25T11:26:20.762Z,101464.48
2019-04-25T11:28:51.735Z,101462.85
2019-04-25T11:31:28.126Z,101463.09
2019-04-25T11:33:59.040Z,101469.39
2019-04-25T11:36:29.761Z,101463.48
2019-04-25T11:39:34.811Z,101454.59
2019-04-25T11:42:15.178Z,101450.44
2019-04-25T11:44:46.204Z,101447.66
2019-04-25T11:47:17.428Z,101450.94
2019-04-25T11:49:49.075Z,101448.91
2019-04-25T11:52:29.536Z,101450.66
2019-04-25T11:54:54.814Z,101445.86
2019-04-25T11:57:26.447Z,101443.53
2019-04-25T11:59:57.089Z,101433.87
2019-04-25T12:02:27.915Z,101439.05
2019-04-25T12:04:58.501Z,101434.97
2019-04-25T12:07:29.666Z,101427.55
2019-04-25T12:10:00.169Z,101425.86
2019-04-25T12:12:30.919Z,101424.70
2019-04-25T12:15:04.367Z,101415.73
2019-04-25T12:17:35.377Z,101415.27
2019-04-25T12:20:06.523Z,101403.84
2019-04-25T12:22:37.053Z,101399.72
2019-04-25T12:25:08.197Z,101399.46
2019-04-25T12:27:39.249Z,101398.77
2019-04-25T12:30:09.910Z,101412.66
2019-04-25T12:32:41.616Z,101408.72
2019-04-25T12:35:14.227Z,101397.10
2019-04-25T12:37:45.068Z,101400.84
2019-04-25T12:40:15.846Z,101400.36
2019-04-25T12:42:46.418Z,101403.27
2019-04-25T12:45:30.487Z,101393.17
2019-04-25T12:48:01.124Z,101393.53
2019-04-25T12:50:33.669Z,101382.84
2019-04-25T12:53:04.853Z,101382.67
2019-04-25T12:55:35.619Z,101372.27
2019-04-25T12:58:06.383Z,101380.43
2019-04-25T13:00:47.567Z,101386.23
2019-04-25T13:03:10.317Z,101385.48
2019-04-25T13:05:40.986Z,101378.44
2019-04-25T13:08:11.549Z,101380.91
2019-04-25T13:10:44.293Z,101382.22
2019-04-25T13:13:16.399Z,101382.30
2019-04-25T13:15:47.558Z,101375.75
2019-04-25T13:18:18.357Z,101377.59
2019-04-25T13:20:48.916Z,101370.67
2019-04-25T13:23:20.003Z,101372.54
2019-04-25T13:25:50.726Z,101376.67
2019-04-25T13:28:46.149Z,101363.72
2019-04-25T13:31:44.360Z,101363.80
2019-04-25T13:34:19.996Z,101353.97
2019-04-25T13:36:52.116Z,101353.77
2019-04-25T13:39:24.161Z,101354.53
2019-04-25T13:41:58.303Z,101357.45
2019-04-25T13:44:27.341Z,101356.60
2019-04-25T13:46:58.502Z,101350.62
2019-04-25T13:49:29.358Z,101345.58
2019-04-25T13:52:00.176Z,101343.42
2019-04-25T13:54:31.427Z,101338.43
2019-04-25T13:57:03.339Z,101332.27
2019-04-25T13:59:33.952Z,101331.05
2019-04-25T14:02:07.353Z,101331.64
2019-04-25T14:04:38.146Z,101334.16
2019-04-25T14:07:09.623Z,101339.20
2019-04-25T14:09:40.366Z,101336.41
2019-04-25T14:12:11.980Z,101339.49
2019-04-25T14:14:44.110Z,101331.81
2019-04-25T14:17:25.754Z,101331.82
2019-04-25T14:20:25.247Z,101340.06
2019-04-25T14:22:57.053Z,101342.58
2019-04-25T14:25:28.488Z,101340.16
2019-04-25T14:27:59.184Z,101336.67
2019-04-25T14:30:32.644Z,101341.37
2019-04-25T14:33:04.338Z,101330.98
2019-04-25T14:35:34.954Z,101334.34
2019-04-25T14:38:06.303Z,101334.34
2019-04-25T14:40:37.108Z,101328.81
2019-04-25T14:43:07.986Z,101327.90
2019-04-25T14:45:44.272Z,101330.97
2019-04-25T14:48:12.322Z,101338.27
2019-04-25T14:50:43.489Z,101333.60
2019-04-25T14:53:14.674Z,101334.16
2019-04-25T14:56:16.337Z,101346.14
2019-04-25T14:58:47.323Z,101338.48
2019-04-25T15:01:21.603Z,101336.77
2019-04-25T15:03:53.406Z,101320.30
2019-04-25T15:06:24.475Z,101319.27
2019-04-25T15:08:56.407Z,101310.34
2019-04-25T15:11:27.387Z,101310.66
2019-04-25T15:13:58.242Z,101302.33
2019-04-25T15:16:29.118Z,101305.86
2019-04-25T15:18:59.722Z,101292.77
2019-04-25T15:21:31.788Z,101290.89
2019-04-25T15:24:02.886Z,101292.11
2019-04-25T15:26:33.725Z,101287.16
2019-04-25T15:29:04.368Z,101287.33
2019-04-25T15:31:35.344Z,101291.07
2019-04-25T15:34:06.886Z,101287.33
2019-04-25T15:36:47.682Z,101283.72
2019-04-25T15:39:37.526Z,101284.36
2019-04-25T15:42:28.561Z,101283.61
2019-04-25T15:45:24.139Z,101279.94
2019-04-25T15:47:55.407Z,101275.00
2019-04-25T15:50:26.419Z,101274.06
2019-04-25T15:52:57.420Z,101268.97
2019-04-25T15:55:29.015Z,101275.15
2019-04-25T15:57:59.906Z,101270.46
2019-04-25T16:00:35.118Z,101267.30
2019-04-25T16:03:06.697Z,101260.94
2019-04-25T16:05:39.211Z,101263.46
2019-04-25T16:08:09.903Z,101255.80
2019-04-25T16:10:42.058Z,101255.30
2019-04-25T16:13:14.086Z,101261.39
2019-04-25T16:15:45.027Z,101270.09
2019-04-25T16:18:15.671Z,101274.19
2019-04-25T16:20:47.565Z,101275.67
2019-04-25T16:23:18.256Z,101280.98
2019-04-25T16:51:06.661Z,101293.44
2019-04-25T16:53:37.914Z,101295.11
2019-04-25T16:56:09.045Z,101297.95
2019-04-25T16:58:40.775Z,101303.34
2019-04-25T17:01:35.934Z,101306.83
2019-04-25T17:04:05.540Z,101307.91
2019-04-25T17:06:37.976Z,101304.03
2019-04-25T17:09:17.548Z,101307.59
2019-04-25T17:11:48.468Z,101312.31
2019-04-25T17:14:25.569Z,101308.95
2019-04-25T17:17:14.821Z,101309.73
2019-04-25T17:20:01.792Z,101307.89
2019-04-25T17:22:33.197Z,101308.14
2019-04-25T17:25:07.241Z,101311.11
2019-04-25T17:27:39.604Z,101313.35
2019-04-25T17:30:10.680Z,101309.59
2019-04-25T17:32:57.497Z,101304.94
2019-04-25T17:35:50.714Z,101305.11
2019-04-25T17:38:42.211Z,101301.27
2019-04-25T17:41:14.457Z,101300.73
2019-04-25T17:43:45.657Z,101300.28
2019-04-25T17:46:19.126Z,101282.63
2019-04-25T17:48:49.857Z,101307.83
2019-04-25T17:51:20.764Z,101312.14
2019-04-25T17:53:51.555Z,101315.73
2019-04-25T17:56:22.535Z,101318.68
2019-04-25T17:58:54.403Z,101312.60
2019-04-25T18:01:27.418Z,101314.96
2019-04-25T18:03:58.481Z,101315.13
2019-04-25T18:06:29.316Z,101311.70
2019-04-25T18:08:59.823Z,101314.24
2019-04-25T18:11:30.712Z,101316.32
2019-04-25T18:14:01.273Z,101313.28
2019-04-25T18:16:40.326Z,101307.29
2019-04-25T18:19:42.591Z,101307.45
2019-04-25T18:22:27.182Z,101312.78
2019-04-25T18:25:26.408Z,101309.56
2019-04-25T18:28:18.860Z,101312.34
2019-04-25T18:30:50.213Z,101311.37
2019-04-25T18:33:31.073Z,101308.59
2019-04-25T18:36:20.862Z,101308.61
2019-04-25T18:39:13.585Z,101301.47
2019-04-25T18:42:04.538Z,101297.63
2019-04-25T18:44:36.624Z,101292.49
2019-04-25T18:47:07.756Z,101290.81
2019-04-25T18:49:40.453Z,101299.66
2019-04-25T18:52:17.389Z,101296.89
2019-04-25T18:54:58.260Z,101301.02
2019-04-25T18:57:32.468Z,101294.28
2019-04-25T19:00:28.321Z,101298.48
2019-04-25T19:03:26.087Z,101296.66
2019-04-25T19:05:59.243Z,101288.45
2019-04-25T19:08:29.910Z,101292.89
2019-04-25T19:11:00.450Z,101292.04
2019-04-25T19:13:31.824Z,101293.27
2019-04-25T19:16:02.559Z,101296.12
2019-04-25T19:18:33.269Z,101297.79
2019-04-25T19:21:05.953Z,101292.20
2019-04-25T19:23:36.624Z,101286.20
2019-04-25T19:26:07.374Z,101280.81
2019-04-25T19:28:38.493Z,101284.23
2019-04-25T19:31:10.294Z,101275.09
2019-04-25T19:33:41.633Z,101276.30
2019-04-25T19:36:12.603Z,101270.91
2019-04-25T19:38:43.948Z,101268.91
2019-04-25T19:41:27.271Z,101269.93
2019-04-25T19:44:10.717Z,101267.47
2019-04-25T19:46:47.181Z,101262.38
2019-04-25T19:49:17.955Z,101265.22
2019-04-25T19:51:49.384Z,101264.69
2019-04-25T19:54:20.848Z,101262.44
2019-04-25T19:56:51.805Z,101259.45
2019-04-25T19:59:23.268Z,101256.61
2019-04-25T20:01:56.132Z,101252.92
2019-04-25T20:04:36.595Z,101247.87
2019-04-25T20:07:33.983Z,101245.25
2019-04-25T20:10:15.973Z,101245.02
2019-04-25T20:12:50.555Z,101231.64
2019-04-25T20:15:21.237Z,101244.93
2019-04-25T20:17:52.208Z,101239.91
2019-04-25T20:20:22.875Z,101235.81
2019-04-25T20:22:54.464Z,101239.52
2019-04-25T20:25:30.943Z,101235.28
2019-04-25T20:28:01.695Z,101235.70
2019-04-25T20:30:36.107Z,101234.62
2019-04-25T20:33:12.615Z,101234.88
2019-04-25T20:35:43.638Z,101235.21
2019-04-25T20:38:14.600Z,101230.78
2019-04-25T20:40:46.799Z,101232.48
2019-04-25T20:43:18.027Z,101223.56
2019-04-25T20:45:48.831Z,101229.22
2019-04-25T20:48:19.635Z,101226.84
2019-04-25T20:50:50.643Z,101225.54
2019-04-25T20:53:21.306Z,101227.97
2019-04-25T20:55:52.897Z,101228.25
2019-04-25T20:58:23.568Z,101222.08
2019-04-25T21:00:56.624Z,101213.16
2019-04-25T21:03:27.292Z,101218.73
2019-04-25T21:06:06.048Z,101216.03
2019-04-25T21:08:36.967Z,101217.31
2019-04-25T21:11:07.649Z,101218.67
2019-04-25T21:13:59.993Z,101219.19
2019-04-25T21:16:59.917Z,101214.64
2019-04-25T21:19:32.588Z,101213.05
2019-04-25T21:22:03.943Z,101216.97
2019-04-25T21:24:34.533Z,101214.81
2019-04-25T21:27:05.500Z,101206.37
2019-04-25T21:29:36.654Z,101208.70
2019-04-25T21:32:07.422Z,101207.85
2019-04-25T21:34:38.329Z,101206.09
2019-04-25T21:37:10.176Z,101210.92
2019-04-25T21:39:51.335Z,101195.91
2019-04-25T21:42:48.432Z,101203.50
2019-04-25T21:45:19.810Z,101194.05
2019-04-25T21:47:51.137Z,101195.61
2019-04-25T21:50:24.801Z,101189.95
2019-04-25T21:52:55.810Z,101187.14
2019-04-25T21:55:27.926Z,101184.84
2019-04-25T21:57:59.817Z,101180.94
2019-04-25T22:00:48.469Z,101175.20
2019-04-25T22:03:22.056Z,101179.52
2019-04-25T22:05:54.171Z,101168.30
2019-04-25T22:08:26.005Z,101167.25
2019-04-25T22:10:57.578Z,101166.55
2019-04-25T22:13:28.388Z,101165.41
2019-04-25T22:15:59.955Z,101163.88
2019-04-25T22:18:31.056Z,101160.49
2019-04-25T22:21:02.738Z,101161.59
2019-04-25T22:26:10.629Z,101157.40
2019-04-25T22:28:41.484Z,101152.18
2019-04-25T22:31:17.683Z,101144.12
2019-04-25T22:34:07.315Z,101134.95
2019-04-25T22:36:39.244Z,101148.89
2019-04-25T22:39:11.913Z,101148.11
2019-04-25T22:41:46.889Z,101151.05
2019-04-25T22:44:19.176Z,101153.03
2019-04-25T22:46:50.400Z,101144.81
2019-04-25T22:49:21.118Z,101145.98
2019-04-25T22:51:51.885Z,101142.39
2019-04-25T22:54:24.566Z,101136.45
2019-04-25T22:56:55.596Z,101134.38
2019-04-25T22:59:28.439Z,101129.59
2019-04-25T23:02:19.601Z,101124.10
2019-04-25T23:05:15.752Z,101125.97
2019-04-25T23:07:42.962Z,101127.70
2019-04-25T23:10:14.792Z,101122.23
2019-04-25T23:12:45.615Z,101121.63
2019-04-25T23:15:16.917Z,101118.97
2019-04-25T23:17:47.562Z,101124.39
2019-04-25T23:20:19.617Z,101119.88
2019-04-25T23:22:50.411Z,101117.75
2019-04-25T23:25:26.840Z,101115.39
2019-04-25T23:28:06.448Z,101115.92
2019-04-25T23:30:43.091Z,101113.59
2019-04-25T23:33:15.031Z,101113.39
2019-04-25T23:35:47.987Z,101110.78
2019-04-25T23:38:18.639Z,101108.26
2019-04-25T23:40:49.574Z,101110.86
2019-04-25T23:43:20.743Z,101108.26
2019-04-25T23:45:51.600Z,101108.09
2019-04-25T23:48:22.697Z,101101.25
2019-04-25T23:50:53.688Z,101099.95
2019-04-25T23:53:25.815Z,101100.64
2019-04-25T23:55:56.879Z,101103.16
2019-04-25T23:58:27.776Z,101101.86
